sensor_id;sensor_type;location;lat;lon;timestamp;P1;durP1;ratioP1;P2;durP2;ratioP2
34657;SDS011;20865;43.312;27.152;2023-03-01T19:52:15;47.33;;;20.97;;
34657;SDS011;20865;43.312;27.152;2023-03-01T19:54:42;52.78;;;21.37;;
34657;SDS011;20865;43.312;27.152;2023-03-01T19:57:11;51.60;;;21.73;;
34657;SDS011;20865;43.312;27.152;2023-03-01T19:59:38;52.67;;;19.62;;
34657;SDS011;20865;43.312;27.152;2023-03-01T20:02:06;48.68;;;20.97;;
34657;SDS011;20865;43.312;27.152;2023-03-01T20:04:35;42.88;;;19.60;;
34657;SDS011;20865;43.312;27.152;2023-03-01T20:07:02;37.93;;;18.02;;
34657;SDS011;20865;43.312;27.152;2023-03-01T20:09:30;45.52;;;19.60;;
34657;SDS011;20865;43.312;27.152;2023-03-01T20:11:57;48.98;;;20.65;;
34657;SDS011;20865;43.312;27.152;2023-03-01T20:14:25;54.75;;;23.62;;
34657;SDS011;20865;43.312;27.152;2023-03-01T20:16:53;58.70;;;24.35;;
34657;SDS011;20865;43.312;27.152;2023-03-01T20:19:20;57.10;;;23.60;;
34657;SDS011;20865;43.312;27.152;2023-03-01T20:21:50;45.88;;;18.37;;
34657;SDS011;20865;43.312;27.152;2023-03-01T20:24:17;41.95;;;18.07;;
34657;SDS011;20865;43.312;27.152;2023-03-01T20:26:45;53.48;;;19.92;;
34657;SDS011;20865;43.312;27.152;2023-03-01T20:29:13;64.45;;;28.67;;
34657;SDS011;20865;43.312;27.152;2023-03-01T20:31:40;60.40;;;23.67;;
34657;SDS011;20865;43.312;27.152;2023-03-01T20:34:08;56.18;;;23.95;;
34657;SDS011;20865;43.312;27.152;2023-03-01T20:36:36;64.42;;;24.20;;
34657;SDS011;20865;43.312;27.152;2023-03-01T20:39:05;55.90;;;22.65;;
34657;SDS011;20865;43.312;27.152;2023-03-01T20:41:34;44.10;;;18.37;;
34657;SDS011;20865;43.312;27.152;2023-03-01T20:44:01;46.48;;;19.87;;
34657;SDS011;20865;43.312;27.152;2023-03-01T20:46:32;48.02;;;20.27;;
34657;SDS011;20865;43.312;27.152;2023-03-01T20:49:00;54.70;;;22.90;;
34657;SDS011;20865;43.312;27.152;2023-03-01T20:51:28;58.58;;;22.82;;
34657;SDS011;20865;43.312;27.152;2023-03-01T20:53:57;50.70;;;20.62;;
34657;SDS011;20865;43.312;27.152;2023-03-01T20:56:25;41.92;;;18.25;;
34657;SDS011;20865;43.312;27.152;2023-03-01T20:58:53;38.00;;;17.85;;
34657;SDS011;20865;43.312;27.152;2023-03-01T21:01:24;41.92;;;19.05;;
34657;SDS011;20865;43.312;27.152;2023-03-01T21:03:53;50.48;;;20.90;;
34657;SDS011;20865;43.312;27.152;2023-03-01T21:06:22;49.05;;;19.95;;
34657;SDS011;20865;43.312;27.152;2023-03-01T21:08:49;49.95;;;19.25;;
34657;SDS011;20865;43.312;27.152;2023-03-01T21:11:17;37.00;;;17.60;;
34657;SDS011;20865;43.312;27.152;2023-03-01T21:13:46;37.42;;;16.12;;
34657;SDS011;20865;43.312;27.152;2023-03-01T21:16:14;32.73;;;16.17;;
34657;SDS011;20865;43.312;27.152;2023-03-01T21:18:42;32.65;;;15.90;;
34657;SDS011;20865;43.312;27.152;2023-03-01T21:21:11;41.68;;;18.73;;
34657;SDS011;20865;43.312;27.152;2023-03-01T21:23:41;45.15;;;20.90;;
34657;SDS011;20865;43.312;27.152;2023-03-01T21:26:13;41.92;;;20.37;;
34657;SDS011;20865;43.312;27.152;2023-03-01T21:28:43;47.13;;;20.45;;
34657;SDS011;20865;43.312;27.152;2023-03-01T21:31:13;52.35;;;20.08;;
34657;SDS011;20865;43.312;27.152;2023-03-01T21:33:43;35.80;;;16.55;;
34657;SDS011;20865;43.312;27.152;2023-03-01T21:36:12;38.20;;;18.15;;
34657;SDS011;20865;43.312;27.152;2023-03-01T21:38:42;43.73;;;18.77;;
34657;SDS011;20865;43.312;27.152;2023-03-01T21:41:12;39.40;;;17.57;;
34657;SDS011;20865;43.312;27.152;2023-03-01T21:43:46;47.50;;;21.20;;
34657;SDS011;20865;43.312;27.152;2023-03-01T21:46:18;53.15;;;22.98;;
34657;SDS011;20865;43.312;27.152;2023-03-01T21:48:47;72.85;;;26.55;;
34657;SDS011;20865;43.312;27.152;2023-03-01T21:51:16;59.27;;;23.47;;
34657;SDS011;20865;43.312;27.152;2023-03-01T21:53:46;63.58;;;24.77;;
34657;SDS011;20865;43.312;27.152;2023-03-01T21:56:24;38.08;;;18.57;;
34657;SDS011;20865;43.312;27.152;2023-03-01T21:58:48;42.85;;;19.57;;
34657;SDS011;20865;43.312;27.152;2023-03-01T22:01:19;45.70;;;20.90;;
34657;SDS011;20865;43.312;27.152;2023-03-01T22:03:54;44.13;;;19.40;;
34657;SDS011;20865;43.312;27.152;2023-03-01T22:06:24;56.42;;;20.65;;
34657;SDS011;20865;43.312;27.152;2023-03-01T22:09:03;56.45;;;20.43;;
34657;SDS011;20865;43.312;27.152;2023-03-01T22:11:40;40.28;;;16.67;;
34657;SDS011;20865;43.312;27.152;2023-03-01T22:14:07;45.67;;;17.82;;
34657;SDS011;20865;43.312;27.152;2023-03-01T22:16:37;50.12;;;17.67;;
34657;SDS011;20865;43.312;27.152;2023-03-01T22:19:07;54.18;;;20.23;;
34657;SDS011;20865;43.312;27.152;2023-03-01T22:21:37;68.37;;;21.93;;
34657;SDS011;20865;43.312;27.152;2023-03-01T22:24:06;45.00;;;17.65;;
34657;SDS011;20865;43.312;27.152;2023-03-01T22:26:36;51.40;;;16.75;;
34657;SDS011;20865;43.312;27.152;2023-03-01T22:29:10;45.20;;;16.12;;
34657;SDS011;20865;43.312;27.152;2023-03-01T22:31:39;82.17;;;23.12;;
34657;SDS011;20865;43.312;27.152;2023-03-01T22:34:08;45.25;;;18.02;;
34657;SDS011;20865;43.312;27.152;2023-03-01T22:36:37;47.55;;;17.37;;
34657;SDS011;20865;43.312;27.152;2023-03-01T22:39:07;35.48;;;14.53;;
34657;SDS011;20865;43.312;27.152;2023-03-01T22:41:41;31.55;;;13.28;;
34657;SDS011;20865;43.312;27.152;2023-03-01T22:44:17;28.95;;;11.33;;
34657;SDS011;20865;43.312;27.152;2023-03-01T22:46:46;25.90;;;11.08;;
34657;SDS011;20865;43.312;27.152;2023-03-01T22:49:17;22.17;;;10.30;;
34657;SDS011;20865;43.312;27.152;2023-03-01T22:51:45;27.52;;;10.53;;
34657;SDS011;20865;43.312;27.152;2023-03-01T22:54:14;30.05;;;10.88;;
34657;SDS011;20865;43.312;27.152;2023-03-01T22:56:44;28.07;;;10.30;;
34657;SDS011;20865;43.312;27.152;2023-03-01T22:59:15;22.50;;;10.58;;
34657;SDS011;20865;43.312;27.152;2023-03-01T23:01:45;24.77;;;10.58;;
34657;SDS011;20865;43.312;27.152;2023-03-01T23:04:15;27.20;;;11.38;;
34657;SDS011;20865;43.312;27.152;2023-03-01T23:06:43;30.15;;;11.93;;
34657;SDS011;20865;43.312;27.152;2023-03-01T23:09:28;32.55;;;13.98;;
34657;SDS011;20865;43.312;27.152;2023-03-01T23:11:58;34.30;;;13.88;;
34657;SDS011;20865;43.312;27.152;2023-03-01T23:14:29;35.63;;;13.38;;
34657;SDS011;20865;43.312;27.152;2023-03-01T23:16:58;33.60;;;12.73;;
34657;SDS011;20865;43.312;27.152;2023-03-01T23:19:26;34.75;;;11.80;;
34657;SDS011;20865;43.312;27.152;2023-03-01T23:22:14;24.52;;;10.58;;
34657;SDS011;20865;43.312;27.152;2023-03-01T23:24:43;30.10;;;12.13;;
34657;SDS011;20865;43.312;27.152;2023-03-01T23:27:12;29.10;;;11.18;;
34657;SDS011;20865;43.312;27.152;2023-03-01T23:29:42;24.55;;;11.28;;
34657;SDS011;20865;43.312;27.152;2023-03-01T23:32:10;30.23;;;12.68;;
34657;SDS011;20865;43.312;27.152;2023-03-01T23:34:39;30.20;;;12.07;;
34657;SDS011;20865;43.312;27.152;2023-03-01T23:37:08;28.47;;;11.68;;
34657;SDS011;20865;43.312;27.152;2023-03-01T23:39:36;33.90;;;11.97;;
34657;SDS011;20865;43.312;27.152;2023-03-01T23:42:05;29.80;;;11.78;;
34657;SDS011;20865;43.312;27.152;2023-03-01T23:44:33;32.90;;;13.15;;
34657;SDS011;20865;43.312;27.152;2023-03-01T23:47:02;27.82;;;10.98;;
34657;SDS011;20865;43.312;27.152;2023-03-01T23:49:30;31.90;;;12.58;;
34657;SDS011;20865;43.312;27.152;2023-03-01T23:51:59;27.95;;;11.97;;
34657;SDS011;20865;43.312;27.152;2023-03-01T23:54:27;27.35;;;11.53;;
34657;SDS011;20865;43.312;27.152;2023-03-01T23:56:54;28.42;;;11.83;;
34657;SDS011;20865;43.312;27.152;2023-03-01T23:59:22;27.95;;;12.10;;
